Time;durP1;ratioP1;P1;durP2;ratioP2;P2;SDS_P1;SDS_P2;PMS_P1;PMS_P2;Temp;Humidity;BMP_temperature;BMP_pressure;BME280_temperature;BME280_humidity;BME280_pressure;Samples;Min_cycle;Max_cycle;Signal;HPM_P1;HPM_P2
2022/01/10 00:00:48;;;;;;;71.90;34.10;;;;;;;-2.10;80.80;100230.00;1624567;87;26285;-77
2022/01/10 00:03:15;;;;;;;62.98;31.90;;;;;;;-2.15;80.98;100223.41;1622349;87;25843;-77
2022/01/10 00:05:42;;;;;;;61.98;33.73;;;;;;;-2.18;81.00;100229.72;1621895;87;27659;-77
2022/01/10 00:08:08;;;;;;;61.48;30.48;;;;;;;-2.23;81.08;100225.31;1618539;87;25870;-77
2022/01/10 00:10:35;;;;;;;64.62;31.95;;;;;;;-2.25;81.05;100232.94;1617240;87;25974;-77
2022/01/10 00:13:02;;;;;;;64.37;32.48;;;;;;;-2.29;81.07;100238.90;1621492;86;25981;-77
2022/01/10 00:15:28;;;;;;;66.82;31.23;;;;;;;-2.31;81.13;100238.64;1620699;87;25888;-76
2022/01/10 00:17:54;;;;;;;65.20;32.70;;;;;;;-2.34;81.15;100238.39;1625231;87;27645;-76
2022/01/10 00:20:21;;;;;;;66.57;31.75;;;;;;;-2.37;81.00;100238.13;1623916;87;25837;-76
2022/01/10 00:22:49;;;;;;;63.80;31.35;;;;;;;-2.42;80.87;100243.38;1624298;87;25802;-77
2022/01/10 00:25:20;;;;;;;63.02;32.83;;;;;;;-2.49;80.96;100245.61;1621508;87;25847;-77
2022/01/10 00:27:51;;;;;;;55.08;27.75;;;;;;;-2.54;81.00;100243.79;1622363;87;26422;-77
2022/01/10 00:30:17;;;;;;;55.43;29.35;;;;;;;-2.60;81.16;100256.51;1625582;87;28287;-77
2022/01/10 00:32:45;;;;;;;68.90;32.13;;;;;;;-2.66;81.18;100267.45;1619168;87;26403;-76
2022/01/10 00:35:12;;;;;;;67.03;32.40;;;;;;;-2.71;81.41;100270.39;1628424;87;25834;-76
2022/01/10 00:37:42;;;;;;;64.45;31.85;;;;;;;-2.73;81.42;100282.78;1618012;87;25837;-77
2022/01/10 00:40:11;;;;;;;65.03;30.77;;;;;;;-2.72;81.61;100280.53;1619027;87;25846;-77
2022/01/10 00:42:38;;;;;;;72.00;35.28;;;;;;;-2.71;81.51;100284.81;1622651;86;27482;-77
2022/01/10 00:45:13;;;;;;;63.75;33.02;;;;;;;-2.70;81.48;100300.92;1625117;87;26365;-77
2022/01/10 00:47:33;;;;;;;65.08;32.55;;;;;;;-2.70;81.48;100300.92;1620766;87;25399;-77
2022/01/10 00:50:00;;;;;;;70.87;33.78;;;;;;;-2.71;81.31;100310.19;1624479;88;25948;-78
2022/01/10 00:52:26;;;;;;;71.60;34.35;;;;;;;-2.75;81.19;100304.80;1616925;86;26461;-77
2022/01/10 00:54:52;;;;;;;71.62;34.58;;;;;;;-2.76;81.21;100306.58;1618587;87;27491;-77
2022/01/10 00:57:18;;;;;;;72.70;33.98;;;;;;;-2.80;80.76;100316.92;1621906;87;25780;-76
2022/01/10 00:59:44;;;;;;;77.10;36.60;;;;;;;-2.80;80.76;100316.92;1623670;87;25853;-77
2022/01/10 01:02:11;;;;;;;74.32;34.85;;;;;;;-2.81;80.93;100324.44;1622443;87;26040;-77
2022/01/10 01:04:37;;;;;;;78.70;39.23;;;;;;;-2.83;80.88;100322.40;1622133;87;26310;-76
2022/01/10 01:07:03;;;;;;;82.10;38.23;;;;;;;-2.83;80.87;100328.95;1620801;87;28495;-76
2022/01/10 01:09:31;;;;;;;77.62;39.23;;;;;;;-2.86;80.66;100325.69;1620651;87;26264;-77
2022/01/10 01:12:19;;;;;;;88.12;38.70;;;;;;;-2.82;80.42;100335.03;1622870;87;26002;-77
2022/01/10 01:14:52;;;;;;;79.67;36.83;;;;;;;-2.83;80.16;100346.45;1623507;87;26583;-76
2022/01/10 01:17:12;;;;;;;75.72;37.78;;;;;;;-2.86;80.46;100346.19;1624757;87;25969;-77
2022/01/10 01:20:30;;;;;;;79.22;36.70;;;;;;;-2.89;80.62;100339.88;1624276;87;27489;-77
2022/01/10 01:24:50;;;;;;;76.85;38.88;;;;;;;-2.83;80.70;100353.00;1620371;87;25856;-76
2022/01/10 01:27:16;;;;;;;84.25;39.90;;;;;;;-2.88;80.53;100352.48;1624787;87;25837;-77
2022/01/10 01:29:42;;;;;;;78.20;36.50;;;;;;;-2.94;80.42;100353.76;1623191;87;25874;-77
2022/01/10 01:32:09;;;;;;;83.10;40.40;;;;;;;-3.02;80.29;100349.53;1617457;86;27473;-77
2022/01/10 01:34:35;;;;;;;79.35;36.42;;;;;;;-3.12;80.19;100355.87;1622324;87;25754;-77
2022/01/10 01:37:02;;;;;;;80.45;35.05;;;;;;;-3.23;79.99;100356.27;1625705;87;26488;-76
2022/01/10 01:39:30;;;;;;;81.42;40.35;;;;;;;-3.36;80.04;100351.00;1624891;88;25995;-77
2022/01/10 01:42:03;;;;;;;82.22;38.60;;;;;;;-3.51;80.22;100359.92;1624312;87;25966;-77
2022/01/10 01:44:31;;;;;;;78.40;39.00;;;;;;;-3.51;80.22;100359.92;1622626;87;27479;-77
2022/01/10 01:46:58;;;;;;;85.03;39.48;;;;;;;-3.60;80.49;100346.14;1624033;87;26172;-76
2022/01/10 01:49:24;;;;;;;80.05;38.73;;;;;;;-3.60;80.79;100347.91;1620802;87;25780;-77
2022/01/10 01:51:51;;;;;;;80.07;37.55;;;;;;;-3.65;81.05;100356.53;1627104;87;25852;-76
2022/01/10 01:54:18;;;;;;;76.12;36.70;;;;;;;-3.73;81.25;100362.77;1624403;88;25945;-77
2022/01/10 01:56:46;;;;;;;95.38;42.58;;;;;;;-3.77;81.59;100367.83;1621468;87;27976;-76
2022/01/10 01:59:16;;;;;;;102.12;47.23;;;;;;;-3.80;81.72;100375.87;1620490;87;25359;-77
2022/01/10 02:01:43;;;;;;;94.30;44.53;;;;;;;-3.78;81.93;100370.91;1593975;87;25801;-77
2022/01/10 02:04:10;;;;;;;97.22;44.85;;;;;;;-3.76;81.99;100386.04;1621917;87;26543;-76
2022/01/10 02:06:36;;;;;;;100.67;44.18;;;;;;;-3.75;81.94;100386.42;1594535;88;25827;-76
2022/01/10 02:09:03;;;;;;;96.25;46.58;;;;;;;-3.77;82.02;100387.00;1624411;88;28316;-77
2022/01/10 02:11:29;;;;;;;96.65;47.38;;;;;;;-3.74;82.10;100394.62;1620120;87;25907;-77
2022/01/10 02:13:56;;;;;;;95.97;43.98;;;;;;;-3.73;82.10;100398.94;1620144;88;25771;-77
2022/01/10 02:16:34;;;;;;;90.55;42.35;;;;;;;-3.72;82.17;100404.52;1622414;87;25991;-77
2022/01/10 02:18:53;;;;;;;92.35;44.77;;;;;;;-3.71;82.23;100412.76;1619913;87;25788;-77
2022/01/10 02:21:19;;;;;;;97.60;44.18;;;;;;;-3.69;82.28;100420.50;1622865;87;28097;-76
2022/01/10 02:23:45;;;;;;;85.47;40.95;;;;;;;-3.67;82.47;100419.92;1620341;87;25892;-76
2022/01/10 02:26:17;;;;;;;95.60;41.75;;;;;;;-3.63;82.55;100428.78;1621428;88;25671;-77
2022/01/10 02:28:43;;;;;;;97.15;41.92;;;;;;;-3.61;82.78;100424.28;1625047;87;25857;-77
2022/01/10 02:31:10;;;;;;;92.90;42.27;;;;;;;-3.61;82.93;100432.14;1627493;87;25984;-76
2022/01/10 02:33:36;;;;;;;97.12;41.18;;;;;;;-3.62;83.20;100439.64;1623956;88;27547;-76
2022/01/10 02:36:23;;;;;;;84.47;40.08;;;;;;;-3.65;83.39;100438.52;1624483;88;25859;-77
2022/01/10 02:38:52;;;;;;;94.40;43.55;;;;;;;-3.63;83.87;100436.64;1622751;87;25741;-77
2022/01/10 02:41:26;;;;;;;100.33;42.43;;;;;;;-3.65;83.85;100439.83;1618694;87;26332;-77
2022/01/10 02:43:55;;;;;;;108.75;45.10;;;;;;;-3.64;84.21;100437.59;1589836;87;25966;-76
2022/01/10 02:46:23;;;;;;;107.58;42.75;;;;;;;-3.62;84.34;100446.19;1624895;87;27453;-77
2022/01/10 02:48:50;;;;;;;118.00;49.15;;;;;;;-3.60;84.58;100450.84;1623969;87;25907;-76
2022/01/10 02:51:17;;;;;;;105.95;44.00;;;;;;;-3.56;84.70;100452.32;1621259;87;26566;-77
2022/01/10 02:53:44;;;;;;;108.07;42.53;;;;;;;-3.52;84.85;100451.17;1594361;88;26584;-76
2022/01/10 02:56:11;;;;;;;100.75;40.03;;;;;;;-3.51;85.02;100459.88;1623320;87;25842;-76
2022/01/10 02:58:38;;;;;;;98.87;42.93;;;;;;;-3.52;85.08;100468.19;1594856;87;28292;-77
2022/01/10 03:01:05;;;;;;;103.22;41.75;;;;;;;-3.53;85.21;100474.34;1622866;87;26484;-77
2022/01/10 03:03:31;;;;;;;118.53;48.83;;;;;;;-3.53;86.01;100473.04;1621771;86;25467;-77
2022/01/10 03:06:00;;;;;;;108.40;45.60;;;;;;;-3.56;85.61;100478.50;1624941;87;25915;-77
2022/01/10 03:08:28;;;;;;;86.90;37.20;;;;;;;-3.53;85.72;100482.70;1620129;87;25479;-76
2022/01/10 03:10:55;;;;;;;99.13;42.38;;;;;;;-3.52;85.96;100485.20;1624856;88;28329;-77
2022/01/10 03:13:21;;;;;;;102.17;43.63;;;;;;;-3.55;85.87;100497.17;1624172;87;26516;-77
2022/01/10 03:15:48;;;;;;;93.85;40.28;;;;;;;-3.52;86.01;100496.98;1618195;87;25856;-77
2022/01/10 03:18:14;;;;;;;97.70;43.42;;;;;;;-3.51;85.98;100505.69;1622946;87;25954;-77
2022/01/10 03:20:41;;;;;;;92.47;39.30;;;;;;;-3.50;86.09;100502.11;1624165;87;25834;-77
2022/01/10 03:23:07;;;;;;;103.17;43.45;;;;;;;-3.50;86.03;100501.65;1624972;87;27636;-76
2022/01/10 03:25:34;;;;;;;95.85;38.95;;;;;;;-3.49;86.11;100512.97;1621525;87;25868;-77
2022/01/10 03:28:01;;;;;;;96.05;38.15;;;;;;;-3.46;86.18;100521.45;1622533;87;25325;-77
2022/01/10 03:30:28;;;;;;;91.70;39.83;;;;;;;-3.47;86.15;100518.95;1622754;87;25887;-76
2022/01/10 03:32:58;;;;;;;86.05;35.68;;;;;;;-3.45;86.34;100531.46;1622515;87;25853;-77
2022/01/10 03:35:27;;;;;;;;;;;;;;;-3.48;86.21;100535.58;1625500;87;27537;-77
2022/01/10 03:37:53;;;;;;;84.47;35.43;;;;;;;-3.50;86.36;100546.63;1620778;87;25774;-76
2022/01/10 03:40:20;;;;;;;94.20;39.38;;;;;;;-3.52;86.45;100540.19;1623098;87;25922;-77
2022/01/10 03:42:48;;;;;;;97.30;38.17;;;;;;;-3.48;86.52;100544.74;1622773;87;25915;-77
2022/01/10 03:45:15;;;;;;;77.35;32.67;;;;;;;-3.48;86.52;100544.74;1620651;87;25807;-76
2022/01/10 03:47:42;;;;;;;89.40;36.05;;;;;;;-3.52;86.66;100549.81;1626575;87;28238;-77
2022/01/10 03:50:10;;;;;;;87.20;34.18;;;;;;;-3.65;86.51;100550.22;1622056;87;25865;-77
2022/01/10 03:52:37;;;;;;;88.55;35.43;;;;;;;-3.61;86.99;100560.86;1623001;87;26877;-77
2022/01/10 03:55:05;;;;;;;87.55;33.98;;;;;;;-3.64;86.87;100559.77;1625086;87;26343;-76
2022/01/10 03:57:31;;;;;;;90.28;39.58;;;;;;;-3.66;87.07;100568.19;1622711;87;25796;-77
2022/01/10 03:59:58;;;;;;;93.65;39.98;;;;;;;-3.66;87.18;100572.12;1623516;87;27442;-76
2022/01/10 04:02:26;;;;;;;78.67;30.50;;;;;;;-3.63;87.25;100577.14;1622710;88;26580;-77
2022/01/10 04:04:53;;;;;;;90.62;37.58;;;;;;;-3.64;87.22;100577.62;1619849;86;25778;-76
2022/01/10 04:07:19;;;;;;;78.80;33.92;;;;;;;-3.67;87.23;100580.43;1618523;87;25848;-77
2022/01/10 04:09:47;;;;;;;82.80;32.48;;;;;;;-3.65;87.35;100594.72;1622128;87;26485;-77
2022/01/10 04:12:13;;;;;;;82.20;36.70;;;;;;;-3.64;87.43;100597.27;1624664;87;27494;-77
2022/01/10 04:14:40;;;;;;;89.30;36.15;;;;;;;-3.58;87.58;100609.95;1623179;87;26340;-76
2022/01/10 04:17:06;;;;;;;87.70;36.05;;;;;;;-3.53;87.68;100611.80;1621214;87;26593;-77
2022/01/10 04:19:33;;;;;;;68.85;27.70;;;;;;;-3.50;87.74;100612.92;1623323;87;25848;-76
2022/01/10 04:22:00;;;;;;;82.57;33.23;;;;;;;-3.50;88.16;100615.54;1622240;87;25844;-77
2022/01/10 04:24:26;;;;;;;77.95;30.20;;;;;;;-3.52;88.07;100617.41;1624089;88;27550;-77
2022/01/10 04:26:52;;;;;;;91.50;36.60;;;;;;;-3.48;88.32;100621.98;1624228;88;25831;-76
2022/01/10 04:29:19;;;;;;;86.35;36.48;;;;;;;-3.43;88.37;100624.69;1625698;87;26493;-77
2022/01/10 04:31:46;;;;;;;92.82;36.23;;;;;;;-3.37;88.42;100628.69;1623147;87;26685;-77
2022/01/10 04:34:13;;;;;;;91.25;35.80;;;;;;;-3.30;88.50;100627.36;1621607;87;25764;-77
2022/01/10 04:36:39;;;;;;;94.30;38.35;;;;;;;-3.25;88.49;100635.78;1623503;87;26924;-77
2022/01/10 04:39:06;;;;;;;90.28;35.40;;;;;;;-3.20;88.57;100631.91;1623989;88;26424;-77
2022/01/10 04:41:33;;;;;;;93.65;39.08;;;;;;;-3.14;88.52;100639.37;1617204;87;25829;-77
2022/01/10 04:44:00;;;;;;;90.85;35.35;;;;;;;-3.07;88.52;100639.81;1618549;87;25915;-77
2022/01/10 04:46:26;;;;;;;112.15;45.45;;;;;;;-3.02;88.60;100648.22;1624581;88;26570;-76
2022/01/10 04:48:52;;;;;;;90.95;36.65;;;;;;;-2.98;88.55;100649.70;1620202;87;27607;-77
2022/01/10 04:51:20;;;;;;;97.35;36.58;;;;;;;-2.91;88.64;100658.86;1623811;87;25914;-76
2022/01/10 04:53:53;;;;;;;87.25;34.55;;;;;;;-2.88;88.64;100654.70;1620204;87;25682;-77
2022/01/10 04:56:20;;;;;;;91.28;35.95;;;;;;;-2.88;88.64;100654.70;1623300;87;25935;-77
2022/01/10 04:58:49;;;;;;;83.45;34.50;;;;;;;-2.80;88.59;100668.63;1623954;87;25895;-75
2022/01/10 05:01:17;;;;;;;81.17;33.08;;;;;;;-2.79;88.63;100668.52;1622354;86;27462;-77
2022/01/10 05:03:44;;;;;;;86.63;33.02;;;;;;;-2.74;88.65;100672.16;1626370;87;26002;-76
2022/01/10 05:06:10;;;;;;;88.40;34.92;;;;;;;-2.75;88.60;100680.95;1622601;87;25827;-76
2022/01/10 05:08:37;;;;;;;81.70;32.67;;;;;;;-2.73;88.66;100682.53;1617982;87;26541;-76
2022/01/10 05:11:05;;;;;;;85.83;34.70;;;;;;;-2.72;88.61;100681.61;1622265;87;25987;-78
2022/01/10 05:13:33;;;;;;;81.47;34.83;;;;;;;-2.69;88.62;100680.08;1625203;87;27636;-76
2022/01/10 05:15:59;;;;;;;86.30;36.93;;;;;;;-2.68;88.59;100683.55;1624433;87;25828;-76
2022/01/10 05:18:26;;;;;;;92.12;37.33;;;;;;;-2.67;88.60;100687.37;1624260;88;25831;-76
2022/01/10 05:20:52;;;;;;;84.65;34.70;;;;;;;-2.63;88.61;100688.03;1624274;86;26598;-78
2022/01/10 05:23:19;;;;;;;91.47;35.73;;;;;;;-2.62;88.62;100689.69;1624982;87;25783;-77
2022/01/10 05:25:46;;;;;;;84.65;34.33;;;;;;;-2.61;88.62;100692.70;1621737;87;28388;-77
2022/01/10 05:28:17;;;;;;;79.55;33.00;;;;;;;-2.56;88.55;100707.17;1623896;87;25878;-77
2022/01/10 05:30:45;;;;;;;74.58;31.60;;;;;;;-2.56;88.55;100707.17;1624026;87;25908;-77
2022/01/10 05:33:13;;;;;;;78.83;33.05;;;;;;;-2.55;88.67;100714.11;1624262;88;26485;-77
2022/01/10 05:35:50;;;;;;;77.80;30.10;;;;;;;-2.60;88.84;100709.63;1621915;87;25825;-76
2022/01/10 05:38:16;;;;;;;73.37;29.52;;;;;;;-2.55;88.77;100714.11;1620480;87;27532;-76
2022/01/10 05:40:42;;;;;;;68.47;26.45;;;;;;;-2.53;88.89;100721.87;1624330;88;25847;-76
2022/01/10 05:43:09;;;;;;;56.85;22.65;;;;;;;-2.53;88.89;100721.87;1625847;87;25802;-76
2022/01/10 05:45:36;;;;;;;55.40;24.75;;;;;;;-2.55;89.01;100725.91;1622607;87;26673;-77
2022/01/10 05:48:08;;;;;;;58.98;24.30;;;;;;;-2.56;89.13;100722.91;1624646;87;25841;-77
2022/01/10 05:50:34;;;;;;;52.25;21.93;;;;;;;-2.55;89.29;100721.13;1620415;87;27453;-76
2022/01/10 05:53:01;;;;;;;55.12;23.07;;;;;;;-2.56;89.59;100733.86;1594480;88;26857;-77
2022/01/10 05:55:28;;;;;;;50.85;21.57;;;;;;;-2.56;89.59;100733.86;1624482;88;25824;-77
2022/01/10 05:57:55;;;;;;;51.77;21.48;;;;;;;-2.55;89.54;100740.34;1626056;87;26680;-77
2022/01/10 06:00:23;;;;;;;54.70;22.07;;;;;;;-2.54;89.95;100734.59;1622842;87;26056;-77
2022/01/10 06:02:50;;;;;;;44.45;21.87;;;;;;;-2.52;89.72;100741.43;1620412;87;27478;-77
2022/01/10 06:05:19;;;;;;;50.25;21.70;;;;;;;-2.49;89.81;100748.26;1621862;87;25842;-76
2022/01/10 06:07:47;;;;;;;46.90;21.50;;;;;;;-2.48;89.78;100742.91;1622710;87;25910;-77
2022/01/10 06:10:14;;;;;;;41.02;18.62;;;;;;;-2.47;89.81;100750.31;1624365;87;25820;-76
2022/01/10 06:12:41;;;;;;;43.02;19.52;;;;;;;-2.47;89.81;100757.72;1596991;89;26108;-77
2022/01/10 06:15:08;;;;;;;43.75;19.67;;;;;;;-2.46;89.83;100767.25;1621922;87;27467;-77
2022/01/10 06:17:36;;;;;;;41.63;18.20;;;;;;;-2.46;89.84;100763.31;1619985;87;25899;-76
2022/01/10 06:20:04;;;;;;;40.63;18.90;;;;;;;-2.45;89.91;100780.75;1622397;87;25825;-77
2022/01/10 06:22:30;;;;;;;42.58;18.70;;;;;;;-2.44;89.95;100789.47;1623754;87;26081;-77
2022/01/10 06:24:58;;;;;;;37.20;16.90;;;;;;;-2.43;90.03;100788.04;1623031;87;25966;-77
2022/01/10 06:27:26;;;;;;;42.73;18.07;;;;;;;-2.42;90.15;100798.07;1622920;87;27087;-77
2022/01/10 06:29:52;;;;;;;33.05;14.87;;;;;;;-2.45;90.16;100799.10;1623798;88;25920;-77
2022/01/10 06:32:19;;;;;;;39.00;19.70;;;;;;;-2.44;90.52;100811.27;1624245;87;25756;-77
2022/01/10 06:34:45;;;;;;;36.73;19.50;;;;;;;-2.41;90.34;100824.66;1624790;87;26249;-77
2022/01/10 06:37:12;;;;;;;37.58;17.57;;;;;;;-2.41;90.34;100824.66;1624214;88;25967;-76
2022/01/10 06:39:40;;;;;;;44.03;21.40;;;;;;;-2.39;90.51;100831.48;1621938;87;27077;-77
2022/01/10 06:42:07;;;;;;;61.95;24.95;;;;;;;-2.36;90.57;100839.64;1621332;87;25907;-77
2022/01/10 06:44:33;;;;;;;52.83;21.57;;;;;;;-2.35;90.41;100839.99;1596816;88;26282;-76
2022/01/10 06:47:00;;;;;;;72.15;31.35;;;;;;;-2.35;90.48;100834.74;1623285;87;26009;-76
2022/01/10 06:49:26;;;;;;;49.48;22.50;;;;;;;-2.28;90.50;100843.91;1620908;87;26460;-77
2022/01/10 06:51:53;;;;;;;46.02;20.43;;;;;;;-2.28;90.56;100850.47;1622340;86;27555;-76
2022/01/10 06:54:20;;;;;;;51.20;22.00;;;;;;;-2.29;90.41;100847.95;1593428;88;26001;-77
2022/01/10 06:56:46;;;;;;;47.17;20.12;;;;;;;-2.25;90.38;100853.37;1624476;88;25857;-77
2022/01/10 06:59:12;;;;;;;40.67;18.05;;;;;;;-2.26;90.40;100851.67;1625362;87;26701;-76
2022/01/10 07:01:41;;;;;;;34.98;16.60;;;;;;;-2.23;90.53;100871.16;1622349;87;25956;-77
2022/01/10 07:04:09;;;;;;;40.65;19.20;;;;;;;-2.23;90.53;100871.16;1596241;88;29435;-77
2022/01/10 07:06:36;;;;;;;41.95;18.70;;;;;;;-2.25;90.42;100874.36;1620151;87;26512;-76
2022/01/10 07:09:04;;;;;;;43.63;19.20;;;;;;;-2.26;90.49;100878.75;1623208;87;25817;-76
2022/01/10 07:11:32;;;;;;;43.52;19.15;;;;;;;-2.26;90.57;100892.34;1624160;87;26281;-77
2022/01/10 07:13:58;;;;;;;44.90;19.48;;;;;;;-2.27;90.47;100899.39;1621623;87;25827;-76
2022/01/10 07:16:26;;;;;;;44.98;18.65;;;;;;;-2.26;90.59;100901.52;1624325;87;27518;-76
2022/01/10 07:18:54;;;;;;;41.77;21.10;;;;;;;-2.26;90.57;100908.92;1622065;87;25796;-78
2022/01/10 07:21:23;;;;;;;41.60;18.82;;;;;;;-2.29;90.67;100914.39;1619641;87;25772;-77
2022/01/10 07:23:49;;;;;;;44.35;21.35;;;;;;;-2.28;90.79;100939.66;1622517;87;25824;-77
2022/01/10 07:26:16;;;;;;;41.77;19.57;;;;;;;-2.28;90.79;100939.66;1624095;88;25903;-77
2022/01/10 07:28:43;;;;;;;49.15;21.70;;;;;;;-2.27;90.96;100937.89;1617593;87;27457;-77
2022/01/10 07:31:09;;;;;;;47.43;21.87;;;;;;;-2.27;90.96;100937.89;1624142;88;25813;-77
2022/01/10 07:33:37;;;;;;;50.30;22.65;;;;;;;-2.26;90.86;100945.66;1624035;88;25792;-77
2022/01/10 07:36:03;;;;;;;49.13;20.92;;;;;;;-2.34;91.15;100940.06;1622926;87;25780;-76
2022/01/10 07:38:35;;;;;;;45.75;19.48;;;;;;;-2.34;91.17;100938.75;1623287;87;26039;-76
2022/01/10 07:40:58;;;;;;;53.15;22.13;;;;;;;-2.33;91.18;100944.35;1625435;87;27643;-77
2022/01/10 07:43:24;;;;;;;55.78;23.52;;;;;;;-2.32;91.18;100947.36;1622457;86;25975;-77
2022/01/10 07:45:52;;;;;;;63.10;24.07;;;;;;;-2.30;91.36;100944.63;1623575;87;25494;-77
2022/01/10 07:48:19;;;;;;;57.83;23.85;;;;;;;-2.29;91.42;100948.50;1622950;87;25948;-77
2022/01/10 07:50:45;;;;;;;63.90;24.57;;;;;;;-2.30;91.35;100944.17;1616049;87;26310;-77
2022/01/10 07:53:11;;;;;;;65.30;26.23;;;;;;;-2.30;91.36;100949.42;1623653;87;27489;-77
2022/01/10 07:55:37;;;;;;;67.15;27.60;;;;;;;-2.28;91.51;100953.25;1624055;87;25824;-76
2022/01/10 07:58:04;;;;;;;66.07;26.85;;;;;;;-2.27;91.50;100954.48;1626194;87;25338;-76
2022/01/10 08:00:30;;;;;;;67.87;25.85;;;;;;;-2.22;91.61;100962.07;1622698;87;26633;-77
2022/01/10 08:02:56;;;;;;;56.92;24.92;;;;;;;-2.21;91.45;100959.80;1622946;87;26026;-77
2022/01/10 08:05:22;;;;;;;70.55;29.10;;;;;;;-2.18;91.48;100963.56;1617525;87;28288;-77
2022/01/10 08:07:49;;;;;;;68.50;27.62;;;;;;;-2.15;91.56;100972.53;1624101;87;25816;-77
2022/01/10 08:10:15;;;;;;;69.67;27.48;;;;;;;-2.16;91.53;100978.23;1620432;87;25974;-77
2022/01/10 08:12:41;;;;;;;64.10;27.42;;;;;;;-2.18;91.67;100973.55;1620516;87;26531;-77
2022/01/10 08:15:09;;;;;;;81.95;30.75;;;;;;;-2.16;91.81;100977.42;1624076;87;25946;-77
2022/01/10 08:17:36;;;;;;;67.47;27.93;;;;;;;-2.13;91.82;100998.20;1624967;87;27473;-76
2022/01/10 08:20:05;;;;;;;77.00;30.52;;;;;;;-2.10;91.91;101006.74;1622277;87;25843;-76
2022/01/10 08:22:31;;;;;;;65.45;24.27;;;;;;;-2.10;91.91;101006.74;1622774;87;25347;-77
2022/01/10 08:24:57;;;;;;;72.58;28.20;;;;;;;-2.09;92.03;101015.44;1622336;87;26715;-77
2022/01/10 08:27:23;;;;;;;73.12;30.62;;;;;;;-2.11;92.15;101035.69;1624066;87;25841;-76
2022/01/10 08:29:50;;;;;;;70.35;29.02;;;;;;;-2.11;92.15;101035.69;1621154;87;28152;-76
2022/01/10 08:32:17;;;;;;;80.40;29.87;;;;;;;-2.15;92.60;101041.60;1624681;86;26131;-77
2022/01/10 08:34:43;;;;;;;73.02;29.15;;;;;;;-2.15;92.74;101043.37;1624791;87;25343;-77
2022/01/10 08:37:10;;;;;;;75.42;30.48;;;;;;;-2.15;92.87;101049.94;1624636;87;26651;-77
2022/01/10 08:39:38;;;;;;;78.60;28.77;;;;;;;-2.16;92.79;101045.65;1624435;87;25297;-77
2022/01/10 08:42:05;;;;;;;81.02;32.78;;;;;;;-2.13;92.92;101050.69;1624298;87;27490;-76
2022/01/10 08:44:31;;;;;;;72.60;29.18;;;;;;;-2.12;92.83;101053.23;1617719;87;25785;-77
2022/01/10 08:46:57;;;;;;;73.33;29.32;;;;;;;-2.09;93.00;101056.11;1622477;87;25987;-77
2022/01/10 08:49:23;;;;;;;70.20;27.13;;;;;;;-2.10;92.91;101051.36;1623173;87;25898;-77
2022/01/10 08:51:54;;;;;;;76.65;31.95;;;;;;;-2.05;93.26;101063.70;1622427;87;25823;-76
2022/01/10 08:54:18;;;;;;;79.32;34.25;;;;;;;-2.04;93.00;101065.87;1622381;87;27464;-77
2022/01/10 08:56:44;;;;;;;73.97;31.50;;;;;;;-2.07;92.96;101052.92;1622750;87;25735;-77
2022/01/10 08:59:10;;;;;;;74.50;30.45;;;;;;;-1.99;93.15;101071.69;1624173;88;26608;-77
2022/01/10 09:01:37;;;;;;;78.28;32.95;;;;;;;-1.98;93.37;101072.89;1624979;87;25805;-77
2022/01/10 09:04:04;;;;;;;72.42;30.88;;;;;;;-1.97;93.25;101085.09;1624043;87;25890;-77
2022/01/10 09:06:30;;;;;;;78.80;32.13;;;;;;;-1.94;93.29;101082.72;1617809;86;27446;-76
2022/01/10 09:08:56;;;;;;;68.60;28.50;;;;;;;-1.94;93.17;101084.88;1623264;87;25917;-77
2022/01/10 09:11:24;;;;;;;66.70;29.35;;;;;;;-1.91;93.28;101091.27;1619679;87;26592;-77
2022/01/10 09:13:53;;;;;;;77.58;32.38;;;;;;;-1.89;93.19;101092.48;1624343;88;25875;-77
2022/01/10 09:16:19;;;;;;;74.85;31.20;;;;;;;-1.88;93.11;101096.80;1624587;87;25840;-76
2022/01/10 09:18:45;;;;;;;78.17;32.38;;;;;;;-1.87;93.04;101096.70;1620455;87;28282;-76
2022/01/10 09:21:12;;;;;;;60.03;27.22;;;;;;;-1.80;92.89;101103.73;1624665;88;26537;-77
2022/01/10 09:23:38;;;;;;;71.15;31.02;;;;;;;-1.78;92.95;101105.78;1625938;87;25922;-77
2022/01/10 09:26:04;;;;;;;71.75;30.60;;;;;;;-1.77;92.90;101107.45;1621263;87;25818;-77
2022/01/10 09:28:31;;;;;;;70.28;30.88;;;;;;;-1.72;93.03;101108.87;1622041;87;26001;-77
2022/01/10 09:30:57;;;;;;;58.38;27.67;;;;;;;-1.70;92.91;101108.77;1624546;87;28307;-76
2022/01/10 09:33:23;;;;;;;63.30;27.32;;;;;;;-1.68;92.92;101102.48;1624911;88;25852;-76
2022/01/10 09:35:49;;;;;;;61.02;27.95;;;;;;;-1.65;92.58;101114.09;1620316;86;26551;-77
2022/01/10 09:38:17;;;;;;;57.03;26.75;;;;;;;-1.62;92.88;101119.16;1623074;87;25853;-77
2022/01/10 09:40:44;;;;;;;62.35;27.62;;;;;;;-1.59;92.71;101120.75;1614774;87;25767;-77
2022/01/10 09:43:10;;;;;;;63.90;27.22;;;;;;;-1.56;92.30;101120.54;1622509;87;28314;-77
2022/01/10 09:45:38;;;;;;;57.03;26.45;;;;;;;-1.54;92.26;101119.16;1620007;87;26447;-77
2022/01/10 09:48:05;;;;;;;50.85;23.95;;;;;;;-1.54;92.49;101116.06;1624573;88;26487;-76
2022/01/10 09:50:32;;;;;;;58.05;25.55;;;;;;;-1.45;92.60;101128.59;1623912;88;26541;-77
2022/01/10 09:52:58;;;;;;;55.35;23.15;;;;;;;-1.45;91.68;101130.40;1617356;87;26009;-77
2022/01/10 09:55:25;;;;;;;58.40;26.10;;;;;;;-1.44;92.06;101127.66;1620651;87;27487;-76
2022/01/10 09:57:51;;;;;;;52.25;23.02;;;;;;;-1.43;91.97;101134.59;1627021;87;25883;-77
2022/01/10 10:00:20;;;;;;;49.67;23.70;;;;;;;-1.40;92.02;101138.81;1617978;87;25891;-76
2022/01/10 10:02:48;;;;;;;51.15;23.75;;;;;;;-1.37;91.99;101140.79;1624260;87;25962;-77
2022/01/10 10:05:15;;;;;;;55.75;23.52;;;;;;;-1.34;92.05;101137.09;1620109;87;25912;-76
2022/01/10 10:07:41;;;;;;;53.63;24.40;;;;;;;-1.31;91.63;101142.17;1620329;87;27477;-78
2022/01/10 10:10:12;;;;;;;51.30;23.05;;;;;;;-1.36;91.29;101150.81;1623506;87;25913;-76
2022/01/10 10:12:47;;;;;;;45.95;23.50;;;;;;;-1.36;91.23;101156.06;1618215;87;25853;-77
2022/01/10 10:15:17;;;;;;;51.35;23.00;;;;;;;-1.35;91.41;101159.93;1621029;87;26521;-76
2022/01/10 10:17:45;;;;;;;48.05;20.05;;;;;;;-1.35;91.01;101160.39;1619615;87;25776;-76
2022/01/10 10:20:21;;;;;;;53.30;21.97;;;;;;;-1.34;91.01;101158.97;1622810;87;27479;-78
2022/01/10 10:22:51;;;;;;;55.10;23.47;;;;;;;-1.31;91.01;101167.14;1624354;88;26494;-77
2022/01/10 10:25:18;;;;;;;47.27;22.02;;;;;;;-1.26;91.00;101169.02;1621399;87;25794;-78
2022/01/10 10:27:47;;;;;;;46.95;20.55;;;;;;;-1.22;91.05;101175.75;1621871;87;26498;-77
2022/01/10 10:30:27;;;;;;;51.30;21.42;;;;;;;-1.20;90.58;101177.81;1623169;88;26233;-78
2022/01/10 10:33:12;;;;;;;47.98;21.27;;;;;;;-1.21;90.62;101178.28;1619043;87;28314;-77
2022/01/10 10:35:38;;;;;;;48.40;20.17;;;;;;;-1.20;90.27;101184.38;1623619;88;26010;-77
2022/01/10 10:38:06;;;;;;;45.78;20.45;;;;;;;-1.18;90.32;101189.07;1625168;87;26650;-76
2022/01/10 10:40:41;;;;;;;43.33;19.10;;;;;;;-1.16;90.17;101184.55;1624345;88;26898;-76
2022/01/10 10:43:10;;;;;;;47.15;21.02;;;;;;;-1.14;89.75;101191.88;1617153;87;25964;-78
2022/01/10 10:45:38;;;;;;;41.60;18.95;;;;;;;-1.13;90.03;101186.51;1619168;87;27644;-77
2022/01/10 10:48:07;;;;;;;48.68;21.35;;;;;;;-1.07;89.94;101195.31;1624329;87;26040;-77
2022/01/10 10:50:47;;;;;;;42.50;20.05;;;;;;;-1.04;89.61;101199.53;1623478;88;25906;-77
2022/01/10 10:53:14;;;;;;;43.85;19.37;;;;;;;-1.01;89.49;101203.30;1620683;87;25849;-77
2022/01/10 10:55:44;;;;;;;44.60;20.35;;;;;;;-1.00;89.36;101207.59;1626147;87;25877;-76
2022/01/10 10:58:12;;;;;;;47.40;20.95;;;;;;;-1.02;88.71;101212.11;1623042;87;27547;-77
2022/01/10 11:00:39;;;;;;;44.70;20.02;;;;;;;-1.03;88.96;101217.86;1620441;87;26120;-77
2022/01/10 11:03:07;;;;;;;46.23;20.95;;;;;;;-0.98;89.16;101221.02;1621892;87;25836;-77
2022/01/10 11:05:33;;;;;;;41.55;18.42;;;;;;;-0.94;89.18;101222.50;1620410;87;25912;-76
2022/01/10 11:08:00;;;;;;;50.55;21.25;;;;;;;-0.89;88.93;101234.05;1622647;87;25863;-77
2022/01/10 11:10:27;;;;;;;49.03;21.05;;;;;;;-0.89;88.49;101224.38;1622491;87;28464;-77
2022/01/10 11:12:57;;;;;;;40.48;18.27;;;;;;;-0.85;88.70;101226.33;1624082;87;25891;-78